615VGS Twitter

615vgs We're looking for a make-up artist to help us with a Post Crash Management Exercise we're holding at Kenley on... http://t.co/NRbt5U6Tfz
615vgs 615 Boys (and wag!) good to go! http://t.co/yeznJBWKnx

615VGS Facebook

Staff Login


Staff who require login details should contact the MCO.

Join 615 VGS

 

 

615 VGS Partner

bigatmo

Course Photos 2013

KY Aviation Wx

[source: ADDS]
METAR
EGKB 251520Z 21008KT 9999 FEW035 14/06 Q1019 =
TAF
TAF EGKB 251359Z 2515/2519 23007KT 9999 SCT040 =
SR / SS: 06:41 / 16:46 UTC (Sunrise/Sunset 2014-10-25)